createdAt,value
2023-03-19T00:00:53.560Z,11.49
2023-03-19T00:03:20.149Z,11.46
2023-03-19T00:05:53.697Z,11.46
2023-03-19T00:08:20.389Z,11.47
2023-03-19T00:10:54.377Z,11.41
2023-03-19T00:13:23.756Z,11.45
2023-03-19T00:15:50.488Z,11.50
2023-03-19T00:18:17.014Z,11.55
2023-03-19T00:20:43.757Z,11.54
2023-03-19T00:23:10.353Z,11.55
2023-03-19T00:25:37.206Z,11.53
2023-03-19T00:28:03.790Z,11.51
2023-03-19T00:30:30.804Z,11.53
2023-03-19T00:32:57.513Z,11.55
2023-03-19T00:35:27.738Z,11.52
2023-03-19T00:37:55.291Z,11.52
2023-03-19T00:40:22.021Z,11.55
2023-03-19T00:42:48.548Z,11.53
2023-03-19T00:45:15.245Z,11.56
2023-03-19T00:47:43.898Z,11.55
2023-03-19T00:50:12.472Z,11.54
2023-03-19T00:52:39.037Z,11.57
2023-03-19T00:55:05.804Z,11.55
2023-03-19T00:57:32.463Z,11.56
2023-03-19T00:59:58.917Z,11.54
2023-03-19T01:02:28.990Z,11.52
2023-03-19T01:04:55.795Z,11.55
2023-03-19T01:07:22.623Z,11.55
2023-03-19T01:09:49.110Z,11.48
2023-03-19T01:12:25.138Z,11.42
2023-03-19T01:14:51.604Z,11.41
2023-03-19T01:17:18.079Z,11.41
2023-03-19T01:19:44.560Z,11.35
2023-03-19T01:22:11.200Z,11.25
2023-03-19T01:24:37.670Z,11.17
2023-03-19T01:27:04.345Z,11.06
2023-03-19T01:29:31.949Z,11.07
2023-03-19T01:32:01.615Z,11.05
2023-03-19T01:34:28.125Z,11.05
2023-03-19T01:36:55.187Z,11.16
2023-03-19T01:39:21.682Z,11.20
2023-03-19T01:41:48.255Z,11.26
2023-03-19T01:44:33.006Z,11.33
2023-03-19T01:47:06.500Z,11.35
2023-03-19T01:49:34.461Z,11.35
2023-03-19T01:52:03.372Z,11.27
2023-03-19T01:54:32.475Z,11.27
2023-03-19T01:57:03.392Z,11.25
2023-03-19T01:59:33.971Z,11.11
2023-03-19T02:02:00.432Z,11.06
2023-03-19T02:04:28.999Z,11.15
2023-03-19T02:06:56.833Z,11.15
2023-03-19T02:09:29.030Z,11.18
2023-03-19T02:12:01.863Z,11.09
2023-03-19T02:14:28.625Z,10.88
2023-03-19T02:16:59.135Z,10.88
2023-03-19T02:19:48.406Z,10.92
2023-03-19T02:22:18.790Z,10.96
2023-03-19T02:25:08.439Z,10.96
2023-03-19T02:27:34.989Z,10.90
2023-03-19T02:30:18.855Z,10.84
2023-03-19T02:32:51.374Z,10.76
2023-03-19T02:35:21.358Z,10.86
2023-03-19T02:37:48.038Z,10.92
2023-03-19T02:40:27.060Z,10.93
2023-03-19T02:42:53.580Z,10.90
2023-03-19T02:45:21.306Z,10.90
2023-03-19T02:47:47.780Z,10.92
2023-03-19T02:50:14.545Z,10.81
2023-03-19T02:52:41.182Z,10.77
2023-03-19T02:55:11.523Z,10.73
2023-03-19T02:57:41.270Z,10.69
2023-03-19T03:00:12.282Z,10.69
2023-03-19T03:02:44.559Z,10.72
2023-03-19T03:05:11.062Z,10.68
2023-03-19T03:07:37.718Z,10.65
2023-03-19T03:10:04.358Z,10.66
2023-03-19T03:12:31.643Z,10.54
2023-03-19T03:14:58.126Z,10.59
2023-03-19T03:17:24.851Z,10.56
2023-03-19T03:19:51.602Z,10.57
2023-03-19T03:22:18.097Z,10.51
2023-03-19T03:24:44.663Z,10.53
2023-03-19T03:27:11.668Z,10.57
2023-03-19T03:29:38.144Z,10.54
2023-03-19T03:32:04.892Z,10.55
2023-03-19T03:34:31.374Z,10.56
2023-03-19T03:36:57.888Z,10.55
2023-03-19T03:39:24.313Z,10.59
2023-03-19T03:41:51.610Z,10.54
2023-03-19T03:44:18.178Z,10.59
2023-03-19T03:46:44.661Z,10.58
2023-03-19T03:49:11.353Z,10.56
2023-03-19T03:51:37.826Z,10.57
2023-03-19T03:54:04.370Z,10.55
2023-03-19T03:56:31.434Z,10.38
2023-03-19T03:58:57.956Z,10.24
2023-03-19T04:01:24.600Z,10.19
2023-03-19T04:03:51.105Z,10.27
2023-03-19T04:06:20.962Z,10.29
2023-03-19T04:08:47.802Z,10.30
2023-03-19T04:11:15.078Z,10.37
2023-03-19T04:13:42.219Z,10.37
2023-03-19T04:16:10.088Z,10.31
2023-03-19T04:18:37.633Z,10.34
2023-03-19T04:21:07.811Z,10.30
2023-03-19T04:23:34.646Z,10.33
2023-03-19T04:26:07.059Z,10.39
2023-03-19T04:28:34.609Z,10.43
2023-03-19T04:31:12.539Z,10.45
2023-03-19T04:33:39.131Z,10.49
2023-03-19T04:36:06.042Z,10.49
2023-03-19T04:38:32.870Z,10.50
2023-03-19T04:40:59.555Z,10.44
2023-03-19T04:43:26.155Z,10.39
2023-03-19T04:45:52.805Z,10.42
2023-03-19T04:48:19.451Z,10.46
2023-03-19T04:50:48.730Z,10.48
2023-03-19T04:53:15.300Z,10.50
2023-03-19T04:55:41.752Z,10.56
2023-03-19T04:58:09.184Z,10.32
2023-03-19T05:00:36.297Z,10.09
2023-03-19T05:03:02.897Z,10.13
2023-03-19T05:05:29.650Z,10.25
2023-03-19T05:07:57.363Z,10.23
2023-03-19T05:10:26.932Z,10.23
2023-03-19T05:12:53.397Z,10.17
2023-03-19T05:15:19.847Z,10.15
2023-03-19T05:17:46.351Z,9.98
2023-03-19T05:20:16.427Z,9.89
2023-03-19T05:22:42.873Z,9.87
2023-03-19T05:25:09.721Z,9.88
2023-03-19T05:27:36.274Z,9.94
2023-03-19T05:30:03.013Z,10.05
2023-03-19T05:32:29.551Z,10.00
2023-03-19T05:34:56.092Z,10.06
2023-03-19T05:37:22.569Z,10.09
2023-03-19T05:39:49.247Z,10.13
2023-03-19T05:42:16.382Z,10.23
2023-03-19T05:44:43.131Z,10.22
2023-03-19T05:47:11.460Z,10.21
2023-03-19T05:49:38.072Z,10.22
2023-03-19T05:52:04.980Z,10.20
2023-03-19T05:54:31.458Z,10.09
2023-03-19T05:56:57.992Z,10.12
2023-03-19T05:59:24.634Z,10.25
2023-03-19T06:01:51.224Z,10.30
2023-03-19T06:04:17.757Z,10.36
2023-03-19T06:06:44.311Z,10.41
2023-03-19T06:09:10.761Z,10.45
2023-03-19T06:11:39.562Z,10.47
2023-03-19T06:14:06.827Z,10.50
2023-03-19T06:16:33.354Z,10.54
2023-03-19T06:19:00.134Z,10.58
2023-03-19T06:21:29.603Z,10.60
2023-03-19T06:23:56.673Z,10.62
2023-03-19T06:26:24.038Z,10.64
2023-03-19T06:28:50.980Z,10.68
2023-03-19T06:31:17.547Z,10.70
2023-03-19T06:33:44.152Z,10.76
2023-03-19T06:36:10.945Z,10.81
2023-03-19T06:38:37.846Z,10.83
2023-03-19T06:41:04.580Z,10.83
2023-03-19T06:43:31.897Z,10.86
2023-03-19T06:45:58.449Z,10.87
2023-03-19T06:48:25.091Z,10.90
2023-03-19T06:50:51.562Z,10.94
2023-03-19T06:53:18.038Z,10.92
2023-03-19T06:55:48.118Z,10.94
2023-03-19T06:58:14.679Z,10.97
2023-03-19T07:00:44.276Z,10.98
2023-03-19T07:03:11.315Z,10.98
2023-03-19T07:05:37.765Z,11.00
2023-03-19T07:08:04.503Z,11.07
2023-03-19T07:10:31.022Z,11.00
2023-03-19T07:12:57.520Z,10.90
2023-03-19T07:15:24.045Z,10.88
2023-03-19T07:17:53.315Z,10.93
2023-03-19T07:20:19.993Z,11.02
2023-03-19T07:22:46.437Z,11.06
2023-03-19T07:25:12.979Z,11.09
2023-03-19T07:27:39.444Z,10.98
2023-03-19T07:30:06.776Z,10.95
2023-03-19T07:32:33.292Z,10.95
2023-03-19T07:34:59.810Z,11.00
2023-03-19T07:37:28.893Z,11.04
2023-03-19T07:39:55.563Z,11.07
2023-03-19T07:42:22.064Z,11.20
2023-03-19T07:44:48.500Z,11.40
2023-03-19T07:47:26.399Z,11.56
2023-03-19T07:49:55.704Z,11.67
2023-03-19T07:52:22.245Z,11.79
2023-03-19T07:54:50.095Z,11.86
2023-03-19T07:57:16.606Z,11.86
2023-03-19T07:59:43.115Z,11.83
2023-03-19T08:02:13.306Z,11.74
2023-03-19T08:04:40.542Z,11.63
2023-03-19T08:07:08.075Z,11.55
2023-03-19T08:09:34.625Z,11.49
2023-03-19T08:12:01.167Z,11.44
2023-03-19T08:14:27.697Z,11.40
2023-03-19T08:16:54.247Z,11.36
2023-03-19T08:19:20.934Z,11.36
2023-03-19T08:21:47.484Z,11.41
2023-03-19T08:24:14.064Z,11.50
2023-03-19T08:26:40.646Z,11.62
2023-03-19T08:29:07.293Z,11.77
2023-03-19T08:31:33.842Z,11.90
2023-03-19T08:34:02.710Z,11.99
2023-03-19T08:36:29.214Z,12.06
2023-03-19T08:38:55.812Z,12.08
2023-03-19T08:41:22.658Z,12.09
2023-03-19T08:43:49.509Z,12.17
2023-03-19T08:46:16.454Z,12.22
2023-03-19T08:48:43.292Z,12.29
2023-03-19T08:51:10.656Z,12.33
2023-03-19T08:53:38.694Z,12.43
2023-03-19T08:56:07.740Z,12.52
2023-03-19T08:58:34.629Z,12.83
2023-03-19T09:01:03.533Z,13.07
2023-03-19T09:03:31.115Z,13.11
2023-03-19T09:06:02.370Z,13.12
2023-03-19T09:08:31.029Z,13.25
2023-03-19T09:11:01.793Z,13.39
2023-03-19T09:13:28.355Z,13.59
2023-03-19T09:15:55.290Z,13.62
2023-03-19T09:18:24.037Z,13.63
2023-03-19T09:20:50.529Z,13.55
2023-03-19T09:23:17.121Z,13.62
2023-03-19T09:25:43.670Z,13.76
2023-03-19T09:28:10.633Z,13.83
2023-03-19T09:30:37.137Z,13.75
2023-03-19T09:33:04.382Z,13.55
2023-03-19T09:35:32.931Z,13.49
2023-03-19T09:38:00.806Z,13.47
2023-03-19T09:40:46.296Z,13.66
2023-03-19T09:43:31.880Z,13.86
2023-03-19T09:46:01.178Z,13.98
2023-03-19T09:48:40.796Z,13.95
2023-03-19T09:51:12.660Z,13.99
2023-03-19T09:53:57.404Z,14.03
2023-03-19T09:56:25.820Z,14.12
2023-03-19T09:58:52.574Z,14.11
2023-03-19T10:01:49.268Z,14.01
2023-03-19T10:04:18.876Z,14.13
2023-03-19T10:06:45.498Z,14.32
2023-03-19T10:09:23.372Z,14.39
2023-03-19T10:12:13.718Z,14.46
2023-03-19T10:15:15.933Z,14.42
2023-03-19T10:18:05.509Z,14.46
2023-03-19T10:20:41.178Z,14.50
2023-03-19T10:23:28.767Z,14.57
2023-03-19T10:25:58.533Z,14.73
2023-03-19T10:28:27.832Z,14.88
2023-03-19T10:31:12.778Z,14.97
2023-03-19T10:33:42.664Z,15.01
2023-03-19T10:36:14.727Z,14.95
2023-03-19T10:38:43.378Z,14.95
2023-03-19T10:41:29.429Z,14.87
2023-03-19T10:44:05.805Z,14.80
2023-03-19T10:46:40.278Z,14.81
2023-03-19T10:49:14.304Z,14.86
2023-03-19T10:51:45.441Z,14.87
2023-03-19T10:54:21.833Z,14.87
2023-03-19T10:56:49.905Z,14.89
2023-03-19T10:59:30.727Z,14.86
2023-03-19T11:01:59.800Z,14.83
2023-03-19T11:04:28.792Z,14.85
2023-03-19T11:07:13.707Z,14.86
2023-03-19T11:09:47.434Z,14.85
2023-03-19T11:12:23.023Z,14.88
2023-03-19T11:14:52.231Z,14.91
2023-03-19T11:17:37.740Z,14.99
2023-03-19T11:20:27.375Z,15.12
2023-03-19T11:22:56.538Z,15.24
2023-03-19T11:25:36.011Z,15.27
2023-03-19T11:28:08.348Z,15.35
2023-03-19T11:31:05.888Z,15.36
2023-03-19T11:34:06.519Z,15.37
2023-03-19T11:36:38.866Z,15.42
2023-03-19T11:39:17.387Z,15.39
2023-03-19T11:41:58.782Z,15.36
2023-03-19T11:44:58.165Z,15.41
2023-03-19T11:47:28.204Z,15.52
2023-03-19T11:50:31.919Z,15.69
2023-03-19T11:53:16.921Z,15.78
2023-03-19T11:56:05.245Z,15.85
2023-03-19T11:58:53.655Z,15.88
2023-03-19T12:01:46.843Z,15.81
2023-03-19T12:04:50.388Z,15.77
2023-03-19T12:07:52.335Z,15.74
2023-03-19T12:10:46.358Z,15.67
2023-03-19T12:13:22.323Z,15.60
2023-03-19T12:16:01.822Z,15.48
2023-03-19T12:19:02.308Z,15.37
2023-03-19T12:21:41.258Z,15.30
2023-03-19T12:24:23.814Z,15.21
2023-03-19T12:26:53.302Z,15.14
2023-03-19T12:29:44.844Z,15.07
2023-03-19T12:32:30.330Z,15.09
2023-03-19T12:35:02.241Z,15.12
2023-03-19T12:37:35.547Z,15.15
2023-03-19T12:40:29.577Z,15.15
2023-03-19T12:42:59.312Z,15.16
2023-03-19T12:45:49.782Z,15.20
2023-03-19T12:48:28.659Z,15.21
2023-03-19T12:50:58.886Z,15.16
2023-03-19T12:53:43.472Z,15.17
2023-03-19T12:56:17.637Z,15.17
2023-03-19T12:58:56.263Z,15.16
2023-03-19T13:01:29.542Z,15.26
2023-03-19T13:04:33.838Z,15.34
2023-03-19T13:07:08.746Z,15.43
2023-03-19T13:09:49.602Z,15.56
2023-03-19T13:12:29.159Z,15.66
2023-03-19T13:15:11.947Z,15.69
2023-03-19T13:17:57.909Z,15.62
2023-03-19T13:20:39.304Z,15.54
2023-03-19T13:23:09.706Z,15.61
2023-03-19T13:25:48.317Z,15.70
2023-03-19T13:28:29.110Z,15.82
2023-03-19T13:31:08.487Z,15.81
2023-03-19T13:33:37.526Z,15.72
2023-03-19T13:36:15.003Z,15.58
2023-03-19T13:38:47.080Z,15.48
2023-03-19T13:41:35.352Z,15.37
2023-03-19T13:44:32.579Z,15.30
2023-03-19T13:47:23.765Z,15.18
2023-03-19T13:50:10.786Z,15.12
2023-03-19T13:52:48.229Z,15.05
2023-03-19T13:55:52.776Z,14.97
2023-03-19T13:58:41.501Z,14.85
2023-03-19T14:01:26.960Z,14.40
2023-03-19T14:04:17.618Z,13.98
2023-03-19T14:06:56.672Z,13.66
2023-03-19T14:09:59.982Z,13.49
2023-03-19T14:12:36.179Z,13.37
2023-03-19T14:15:09.250Z,13.37
2023-03-19T14:17:42.578Z,13.45
2023-03-19T14:20:12.877Z,13.57
2023-03-19T14:23:09.001Z,13.63
2023-03-19T14:26:23.079Z,13.67
2023-03-19T14:28:57.832Z,13.70
2023-03-19T14:31:27.286Z,13.74
2023-03-19T14:34:06.463Z,13.71
2023-03-19T14:36:38.207Z,13.70
2023-03-19T14:39:09.441Z,13.60
2023-03-19T14:41:43.465Z,13.51
2023-03-19T14:44:28.668Z,13.57
2023-03-19T14:47:42.490Z,13.71
2023-03-19T14:50:53.971Z,13.88
2023-03-19T14:53:37.234Z,13.99
2023-03-19T14:56:26.531Z,14.02
2023-03-19T14:58:55.363Z,13.94
2023-03-19T15:01:25.013Z,13.92
2023-03-19T15:04:03.992Z,13.85
2023-03-19T15:06:35.047Z,13.79
2023-03-19T15:09:02.563Z,13.73
2023-03-19T15:11:55.420Z,13.70
2023-03-19T15:14:57.448Z,13.72
2023-03-19T15:17:27.376Z,13.73
2023-03-19T15:19:55.740Z,13.73
2023-03-19T15:22:31.492Z,13.74
2023-03-19T15:25:14.158Z,13.78
2023-03-19T15:27:42.331Z,13.79
2023-03-19T15:30:23.215Z,13.79
2023-03-19T15:33:03.787Z,13.79
2023-03-19T15:35:36.301Z,13.81
2023-03-19T15:38:08.960Z,13.86
2023-03-19T15:40:37.041Z,13.87
2023-03-19T15:43:04.073Z,13.82
2023-03-19T15:45:35.615Z,13.80
2023-03-19T15:48:34.889Z,13.82
2023-03-19T15:51:04.211Z,13.86
2023-03-19T15:53:34.213Z,13.89
2023-03-19T15:56:02.708Z,13.89
2023-03-19T15:58:38.386Z,13.89
2023-03-19T16:01:08.233Z,13.88
2023-03-19T16:03:41.514Z,13.81
2023-03-19T16:06:17.275Z,13.74
2023-03-19T16:08:55.416Z,13.70
2023-03-19T16:11:28.045Z,13.70
2023-03-19T16:14:00.113Z,13.68
2023-03-19T16:16:30.814Z,13.62
2023-03-19T16:18:58.428Z,13.60
2023-03-19T16:21:27.696Z,13.55
2023-03-19T16:24:20.157Z,13.53
2023-03-19T16:26:48.402Z,13.53
2023-03-19T16:29:29.797Z,13.49
2023-03-19T16:32:02.373Z,13.48
2023-03-19T16:34:34.829Z,13.45
2023-03-19T16:37:01.501Z,13.36
2023-03-19T16:39:31.072Z,13.28
2023-03-19T16:42:26.492Z,13.20
2023-03-19T16:44:56.114Z,13.15
2023-03-19T16:47:22.671Z,13.10
2023-03-19T16:49:49.253Z,13.08
2023-03-19T16:52:20.726Z,13.02
2023-03-19T16:54:47.262Z,12.98
2023-03-19T16:57:15.971Z,12.89
2023-03-19T16:59:43.262Z,12.89
2023-03-19T17:02:12.079Z,12.89
2023-03-19T17:04:38.569Z,12.93
2023-03-19T17:07:05.735Z,12.97
2023-03-19T17:09:32.458Z,12.92
2023-03-19T17:11:59.400Z,12.88
2023-03-19T17:14:25.876Z,12.76
2023-03-19T17:16:52.441Z,12.64
2023-03-19T17:19:24.452Z,12.61
2023-03-19T17:21:53.422Z,12.55
2023-03-19T17:24:29.110Z,12.46
2023-03-19T17:26:58.174Z,12.36
2023-03-19T17:29:26.139Z,12.27
2023-03-19T17:31:54.883Z,12.15
2023-03-19T17:34:27.121Z,12.04
2023-03-19T17:36:56.275Z,11.96
2023-03-19T17:39:24.243Z,11.89
2023-03-19T17:41:51.267Z,11.84
2023-03-19T17:44:17.757Z,11.82
2023-03-19T17:46:50.463Z,11.78
2023-03-19T17:49:32.873Z,11.77
2023-03-19T17:51:59.865Z,11.78
2023-03-19T17:54:27.260Z,11.72
2023-03-19T17:56:54.928Z,11.73
2023-03-19T17:59:22.131Z,11.61
2023-03-19T18:01:48.735Z,11.60
2023-03-19T18:04:18.498Z,11.58
2023-03-19T18:06:50.664Z,11.56
2023-03-19T18:09:23.483Z,11.51
2023-03-19T18:11:50.114Z,11.37
2023-03-19T18:14:16.661Z,11.29
2023-03-19T18:16:43.774Z,11.38
2023-03-19T18:19:35.789Z,11.43
2023-03-19T18:22:06.016Z,11.50
2023-03-19T18:24:32.471Z,11.40
2023-03-19T18:26:58.910Z,11.25
2023-03-19T18:29:25.438Z,10.95
2023-03-19T18:31:52.211Z,10.96
2023-03-19T18:34:19.478Z,11.10
2023-03-19T18:36:46.024Z,11.14
2023-03-19T18:39:14.444Z,11.20
2023-03-19T18:41:41.455Z,11.24
2023-03-19T18:44:09.461Z,11.23
2023-03-19T18:46:38.387Z,11.16
2023-03-19T18:49:18.937Z,11.15
2023-03-19T18:52:00.702Z,11.13
2023-03-19T18:54:31.399Z,11.17
2023-03-19T18:57:00.106Z,11.20
2023-03-19T18:59:30.396Z,11.20
2023-03-19T19:02:03.508Z,11.20
2023-03-19T19:04:31.235Z,11.19
2023-03-19T19:06:58.012Z,11.24
2023-03-19T19:09:24.550Z,11.26
2023-03-19T19:11:51.154Z,11.24
2023-03-19T19:14:22.188Z,11.18
2023-03-19T19:16:49.356Z,11.13
2023-03-19T19:19:19.121Z,11.09
2023-03-19T19:21:46.080Z,11.07
2023-03-19T19:24:14.885Z,11.01
2023-03-19T19:26:46.833Z,10.98
2023-03-19T19:29:20.650Z,11.02
2023-03-19T19:31:47.198Z,11.05
2023-03-19T19:34:16.742Z,11.06
2023-03-19T19:36:43.652Z,11.05
2023-03-19T19:39:10.509Z,11.05
2023-03-19T19:41:37.201Z,11.05
2023-03-19T19:44:04.202Z,11.01
2023-03-19T19:46:32.231Z,11.00
2023-03-19T19:48:59.225Z,10.89
2023-03-19T19:51:28.095Z,10.74
2023-03-19T19:53:54.631Z,10.73
2023-03-19T19:56:23.991Z,10.82
2023-03-19T19:58:53.162Z,10.88
2023-03-19T20:01:22.100Z,10.94
2023-03-19T20:03:50.126Z,10.95
2023-03-19T20:06:17.677Z,10.91
2023-03-19T20:08:45.360Z,10.93
2023-03-19T20:11:19.950Z,10.91
2023-03-19T20:13:52.447Z,10.94
2023-03-19T20:16:20.890Z,10.95
2023-03-19T20:18:48.345Z,10.99
2023-03-19T20:21:15.898Z,10.98
2023-03-19T20:23:44.496Z,10.86
2023-03-19T20:26:14.274Z,10.75
2023-03-19T20:28:41.913Z,10.79
2023-03-19T20:31:19.548Z,10.82
2023-03-19T20:33:46.130Z,10.92
2023-03-19T20:36:15.677Z,10.96
2023-03-19T20:38:42.553Z,10.98
2023-03-19T20:41:21.716Z,10.97
2023-03-19T20:43:49.136Z,11.02
2023-03-19T20:46:20.778Z,11.06
2023-03-19T20:48:49.113Z,10.91
2023-03-19T20:51:22.605Z,10.83
2023-03-19T20:53:51.238Z,10.80
2023-03-19T20:56:21.026Z,10.86
2023-03-19T20:58:47.702Z,10.78
2023-03-19T21:01:15.331Z,10.85
2023-03-19T21:03:42.312Z,10.80
2023-03-19T21:06:22.702Z,10.88
2023-03-19T21:08:58.561Z,10.99
2023-03-19T21:11:38.773Z,11.05
2023-03-19T21:14:09.203Z,11.04
2023-03-19T21:16:36.311Z,11.05
2023-03-19T21:19:03.087Z,11.04
2023-03-19T21:21:36.439Z,11.03
2023-03-19T21:24:09.314Z,11.02
2023-03-19T21:26:38.357Z,11.04
2023-03-19T21:29:11.026Z,11.09
2023-03-19T21:31:37.484Z,11.14
2023-03-19T21:34:03.985Z,11.17
2023-03-19T21:36:30.439Z,11.19
2023-03-19T21:38:58.929Z,11.18
2023-03-19T21:41:33.248Z,11.15
2023-03-19T21:44:05.661Z,11.14
2023-03-19T21:46:32.455Z,11.13
2023-03-19T21:49:02.451Z,11.14
2023-03-19T21:51:29.582Z,11.11
2023-03-19T21:53:56.407Z,11.10
2023-03-19T21:56:32.858Z,11.07
2023-03-19T21:59:09.695Z,11.07
2023-03-19T22:01:42.380Z,11.10
2023-03-19T22:04:12.320Z,11.14
2023-03-19T22:06:40.518Z,11.14
2023-03-19T22:09:07.030Z,11.11
2023-03-19T22:11:37.699Z,11.09
2023-03-19T22:14:11.126Z,11.14
2023-03-19T22:16:37.908Z,11.10
2023-03-19T22:19:04.768Z,11.11
2023-03-19T22:21:32.902Z,11.13
2023-03-19T22:24:02.226Z,11.12
2023-03-19T22:26:44.379Z,11.07
2023-03-19T22:29:17.742Z,11.06
2023-03-19T22:31:45.322Z,11.07
2023-03-19T22:34:17.106Z,11.05
2023-03-19T22:36:44.272Z,11.07
2023-03-19T22:39:10.837Z,11.06
2023-03-19T22:41:40.939Z,11.06
2023-03-19T22:44:14.482Z,11.07
2023-03-19T22:46:44.580Z,11.07
2023-03-19T22:49:15.377Z,11.09
2023-03-19T22:51:41.918Z,11.10
2023-03-19T22:54:10.794Z,11.12
2023-03-19T22:56:37.756Z,11.12
2023-03-19T22:59:04.711Z,11.11
2023-03-19T23:01:43.384Z,11.08
2023-03-19T23:04:16.634Z,11.05
2023-03-19T23:06:43.196Z,11.07
2023-03-19T23:09:24.540Z,11.04
2023-03-19T23:11:51.608Z,11.02
2023-03-19T23:14:29.024Z,10.96
2023-03-19T23:19:28.057Z,10.97
2023-03-19T23:21:55.029Z,10.94
2023-03-19T23:24:30.897Z,10.95
2023-03-19T23:27:06.615Z,10.93
2023-03-19T23:29:43.525Z,10.93
2023-03-19T23:32:11.378Z,10.93
2023-03-19T23:34:53.619Z,10.92
2023-03-19T23:37:24.491Z,10.94
2023-03-19T23:39:54.116Z,10.96
2023-03-19T23:42:28.985Z,10.92
2023-03-19T23:44:59.496Z,10.93
2023-03-19T23:47:32.214Z,10.94
2023-03-19T23:49:59.262Z,10.91
2023-03-19T23:52:26.089Z,10.91
2023-03-19T23:54:52.631Z,10.86
2023-03-19T23:57:21.497Z,10.89
2023-03-19T23:59:51.036Z,10.88
